sensor_id;sensor_type;location;lat;lon;timestamp;temperature;humidity
22974;DHT22;11653;50.848;4.584;2023-10-08T00:01:02;17.80;99.90
22974;DHT22;11653;50.848;4.584;2023-10-08T00:03:28;17.90;99.90
22974;DHT22;11653;50.848;4.584;2023-10-08T00:05:55;18.00;99.90
22974;DHT22;11653;50.848;4.584;2023-10-08T00:08:21;17.90;99.90
22974;DHT22;11653;50.848;4.584;2023-10-08T00:10:47;17.80;99.90
22974;DHT22;11653;50.848;4.584;2023-10-08T00:13:15;17.60;99.90
22974;DHT22;11653;50.848;4.584;2023-10-08T00:15:42;17.60;99.90
22974;DHT22;11653;50.848;4.584;2023-10-08T00:18:19;17.60;99.90
22974;DHT22;11653;50.848;4.584;2023-10-08T00:20:45;17.40;99.90
22974;DHT22;11653;50.848;4.584;2023-10-08T00:23:23;17.40;99.90
22974;DHT22;11653;50.848;4.584;2023-10-08T00:25:53;17.30;99.90
22974;DHT22;11653;50.848;4.584;2023-10-08T00:28:20;17.20;99.90
22974;DHT22;11653;50.848;4.584;2023-10-08T00:30:46;17.10;99.90
22974;DHT22;11653;50.848;4.584;2023-10-08T00:33:13;17.00;99.90
22974;DHT22;11653;50.848;4.584;2023-10-08T00:35:41;17.10;99.90
22974;DHT22;11653;50.848;4.584;2023-10-08T00:38:10;17.00;99.90
22974;DHT22;11653;50.848;4.584;2023-10-08T00:40:46;17.00;99.90
22974;DHT22;11653;50.848;4.584;2023-10-08T00:43:30;17.00;99.90
22974;DHT22;11653;50.848;4.584;2023-10-08T00:45:58;17.10;99.90
22974;DHT22;11653;50.848;4.584;2023-10-08T00:48:25;17.00;99.90
22974;DHT22;11653;50.848;4.584;2023-10-08T00:50:56;16.90;99.90
22974;DHT22;11653;50.848;4.584;2023-10-08T00:53:34;16.90;99.90
22974;DHT22;11653;50.848;4.584;2023-10-08T00:56:06;16.90;99.90
22974;DHT22;11653;50.848;4.584;2023-10-08T00:58:37;16.90;99.90
22974;DHT22;11653;50.848;4.584;2023-10-08T01:01:03;16.80;99.90
22974;DHT22;11653;50.848;4.584;2023-10-08T01:03:30;16.80;99.90
22974;DHT22;11653;50.848;4.584;2023-10-08T01:06:01;16.80;99.90
22974;DHT22;11653;50.848;4.584;2023-10-08T01:08:28;16.70;99.90
22974;DHT22;11653;50.848;4.584;2023-10-08T01:11:19;16.70;99.90
22974;DHT22;11653;50.848;4.584;2023-10-08T01:13:48;16.70;99.90
22974;DHT22;11653;50.848;4.584;2023-10-08T01:16:14;16.60;99.90
22974;DHT22;11653;50.848;4.584;2023-10-08T01:18:40;16.50;99.90
22974;DHT22;11653;50.848;4.584;2023-10-08T01:21:11;16.60;99.90
22974;DHT22;11653;50.848;4.584;2023-10-08T01:23:46;16.50;99.90
22974;DHT22;11653;50.848;4.584;2023-10-08T01:26:13;16.50;99.90
22974;DHT22;11653;50.848;4.584;2023-10-08T01:28:40;16.60;99.90
22974;DHT22;11653;50.848;4.584;2023-10-08T01:31:08;16.50;99.90
22974;DHT22;11653;50.848;4.584;2023-10-08T01:33:37;16.40;99.90
22974;DHT22;11653;50.848;4.584;2023-10-08T01:36:04;16.40;99.90
22974;DHT22;11653;50.848;4.584;2023-10-08T01:38:31;16.10;99.90
22974;DHT22;11653;50.848;4.584;2023-10-08T01:40:57;16.00;99.90
22974;DHT22;11653;50.848;4.584;2023-10-08T01:43:28;15.90;99.90
22974;DHT22;11653;50.848;4.584;2023-10-08T01:45:57;15.90;99.90
22974;DHT22;11653;50.848;4.584;2023-10-08T01:48:23;15.90;99.90
22974;DHT22;11653;50.848;4.584;2023-10-08T01:51:02;15.90;99.90
22974;DHT22;11653;50.848;4.584;2023-10-08T01:53:30;15.90;99.90
22974;DHT22;11653;50.848;4.584;2023-10-08T01:55:57;15.90;99.90
22974;DHT22;11653;50.848;4.584;2023-10-08T01:58:23;15.90;99.90
22974;DHT22;11653;50.848;4.584;2023-10-08T02:00:49;16.00;99.90
22974;DHT22;11653;50.848;4.584;2023-10-08T02:03:18;16.00;99.90
22974;DHT22;11653;50.848;4.584;2023-10-08T02:05:47;15.90;99.90
22974;DHT22;11653;50.848;4.584;2023-10-08T02:08:14;15.90;99.90
22974;DHT22;11653;50.848;4.584;2023-10-08T02:10:41;16.00;99.90
22974;DHT22;11653;50.848;4.584;2023-10-08T02:13:09;15.90;99.90
22974;DHT22;11653;50.848;4.584;2023-10-08T02:15:36;15.80;99.90
22974;DHT22;11653;50.848;4.584;2023-10-08T02:18:03;15.70;99.90
22974;DHT22;11653;50.848;4.584;2023-10-08T02:20:29;15.70;99.90
22974;DHT22;11653;50.848;4.584;2023-10-08T02:22:55;15.70;99.90
22974;DHT22;11653;50.848;4.584;2023-10-08T02:25:21;15.70;99.90
22974;DHT22;11653;50.848;4.584;2023-10-08T02:27:48;15.70;99.90
22974;DHT22;11653;50.848;4.584;2023-10-08T02:30:14;15.60;99.90
22974;DHT22;11653;50.848;4.584;2023-10-08T02:32:40;15.60;99.90
22974;DHT22;11653;50.848;4.584;2023-10-08T02:35:09;15.60;99.90
22974;DHT22;11653;50.848;4.584;2023-10-08T02:37:38;15.60;99.90
22974;DHT22;11653;50.848;4.584;2023-10-08T02:40:09;15.50;99.90
22974;DHT22;11653;50.848;4.584;2023-10-08T02:42:54;15.50;99.90
22974;DHT22;11653;50.848;4.584;2023-10-08T02:45:27;15.50;99.90
22974;DHT22;11653;50.848;4.584;2023-10-08T02:47:56;15.50;99.90
22974;DHT22;11653;50.848;4.584;2023-10-08T02:50:22;15.60;99.90
22974;DHT22;11653;50.848;4.584;2023-10-08T02:52:49;15.60;99.90
22974;DHT22;11653;50.848;4.584;2023-10-08T02:55:16;15.60;99.90
22974;DHT22;11653;50.848;4.584;2023-10-08T02:58:02;15.60;99.90
22974;DHT22;11653;50.848;4.584;2023-10-08T03:00:29;15.60;99.90
22974;DHT22;11653;50.848;4.584;2023-10-08T03:03:01;15.50;99.90
22974;DHT22;11653;50.848;4.584;2023-10-08T03:05:28;15.70;99.90
22974;DHT22;11653;50.848;4.584;2023-10-08T03:08:04;15.70;99.90
22974;DHT22;11653;50.848;4.584;2023-10-08T03:10:39;15.70;99.90
22974;DHT22;11653;50.848;4.584;2023-10-08T03:13:07;15.60;99.90
22974;DHT22;11653;50.848;4.584;2023-10-08T03:15:35;15.60;99.90
22974;DHT22;11653;50.848;4.584;2023-10-08T03:18:24;15.60;99.90
22974;DHT22;11653;50.848;4.584;2023-10-08T03:20:50;15.60;99.90
22974;DHT22;11653;50.848;4.584;2023-10-08T03:23:16;15.70;99.90
22974;DHT22;11653;50.848;4.584;2023-10-08T03:25:50;15.70;99.90
22974;DHT22;11653;50.848;4.584;2023-10-08T03:28:21;15.70;99.90
22974;DHT22;11653;50.848;4.584;2023-10-08T03:30:53;15.70;99.90
22974;DHT22;11653;50.848;4.584;2023-10-08T03:33:31;15.70;99.90
22974;DHT22;11653;50.848;4.584;2023-10-08T03:36:01;15.70;99.90
22974;DHT22;11653;50.848;4.584;2023-10-08T03:38:36;15.70;99.90
22974;DHT22;11653;50.848;4.584;2023-10-08T03:41:15;15.70;99.90
22974;DHT22;11653;50.848;4.584;2023-10-08T03:43:45;15.70;99.90
22974;DHT22;11653;50.848;4.584;2023-10-08T03:46:32;15.70;99.90
22974;DHT22;11653;50.848;4.584;2023-10-08T03:49:05;15.90;99.90
22974;DHT22;11653;50.848;4.584;2023-10-08T03:51:37;15.80;99.90
22974;DHT22;11653;50.848;4.584;2023-10-08T03:54:07;15.80;99.90
22974;DHT22;11653;50.848;4.584;2023-10-08T03:56:43;15.90;99.90
22974;DHT22;11653;50.848;4.584;2023-10-08T03:59:13;15.90;99.90
22974;DHT22;11653;50.848;4.584;2023-10-08T04:01:41;16.00;99.90
22974;DHT22;11653;50.848;4.584;2023-10-08T04:04:07;15.90;99.90
22974;DHT22;11653;50.848;4.584;2023-10-08T04:06:38;15.90;99.90
22974;DHT22;11653;50.848;4.584;2023-10-08T04:09:05;15.80;99.90
22974;DHT22;11653;50.848;4.584;2023-10-08T04:11:34;15.80;99.90
22974;DHT22;11653;50.848;4.584;2023-10-08T04:14:15;15.80;99.90
22974;DHT22;11653;50.848;4.584;2023-10-08T04:16:44;15.80;99.90
22974;DHT22;11653;50.848;4.584;2023-10-08T04:19:10;15.80;99.90
22974;DHT22;11653;50.848;4.584;2023-10-08T04:21:37;15.80;99.90
22974;DHT22;11653;50.848;4.584;2023-10-08T04:24:03;15.80;99.90
22974;DHT22;11653;50.848;4.584;2023-10-08T04:26:29;15.80;99.90
22974;DHT22;11653;50.848;4.584;2023-10-08T04:28:57;15.70;99.90
22974;DHT22;11653;50.848;4.584;2023-10-08T04:31:26;15.70;99.90
22974;DHT22;11653;50.848;4.584;2023-10-08T04:34:23;15.60;99.90
22974;DHT22;11653;50.848;4.584;2023-10-08T04:36:49;15.60;99.90
22974;DHT22;11653;50.848;4.584;2023-10-08T04:39:23;15.70;99.90
22974;DHT22;11653;50.848;4.584;2023-10-08T04:42:01;15.70;99.90
22974;DHT22;11653;50.848;4.584;2023-10-08T04:44:38;15.60;99.90
22974;DHT22;11653;50.848;4.584;2023-10-08T04:47:06;15.50;99.90
22974;DHT22;11653;50.848;4.584;2023-10-08T04:49:32;15.30;99.90
22974;DHT22;11653;50.848;4.584;2023-10-08T04:52:04;15.30;99.90
22974;DHT22;11653;50.848;4.584;2023-10-08T04:54:34;15.30;99.90
22974;DHT22;11653;50.848;4.584;2023-10-08T04:57:06;15.20;99.90
22974;DHT22;11653;50.848;4.584;2023-10-08T04:59:32;15.20;99.90
22974;DHT22;11653;50.848;4.584;2023-10-08T05:02:05;15.20;99.90
22974;DHT22;11653;50.848;4.584;2023-10-08T05:05:00;15.10;99.90
22974;DHT22;11653;50.848;4.584;2023-10-08T05:07:37;15.10;99.90
22974;DHT22;11653;50.848;4.584;2023-10-08T05:10:16;15.10;99.90
22974;DHT22;11653;50.848;4.584;2023-10-08T05:12:51;15.00;99.90
22974;DHT22;11653;50.848;4.584;2023-10-08T05:15:46;15.00;99.90
22974;DHT22;11653;50.848;4.584;2023-10-08T05:18:15;15.00;99.90
22974;DHT22;11653;50.848;4.584;2023-10-08T05:20:44;15.00;99.90
22974;DHT22;11653;50.848;4.584;2023-10-08T05:23:16;15.00;99.90
22974;DHT22;11653;50.848;4.584;2023-10-08T05:25:56;15.00;99.90
22974;DHT22;11653;50.848;4.584;2023-10-08T05:28:35;14.90;99.90
22974;DHT22;11653;50.848;4.584;2023-10-08T05:31:08;14.90;99.90
22974;DHT22;11653;50.848;4.584;2023-10-08T05:33:41;14.80;99.90
22974;DHT22;11653;50.848;4.584;2023-10-08T05:36:15;14.80;99.90
22974;DHT22;11653;50.848;4.584;2023-10-08T05:38:53;14.80;99.90
22974;DHT22;11653;50.848;4.584;2023-10-08T05:41:29;14.80;99.90
22974;DHT22;11653;50.848;4.584;2023-10-08T05:44:06;14.80;99.90
22974;DHT22;11653;50.848;4.584;2023-10-08T05:46:49;14.80;99.90
22974;DHT22;11653;50.848;4.584;2023-10-08T05:49:21;14.70;99.90
22974;DHT22;11653;50.848;4.584;2023-10-08T05:51:56;14.70;99.90
22974;DHT22;11653;50.848;4.584;2023-10-08T05:54:25;14.70;99.90
22974;DHT22;11653;50.848;4.584;2023-10-08T05:57:10;14.70;99.90
22974;DHT22;11653;50.848;4.584;2023-10-08T06:02:20;14.70;99.90
22974;DHT22;11653;50.848;4.584;2023-10-08T06:05:00;14.70;99.90
22974;DHT22;11653;50.848;4.584;2023-10-08T06:07:48;14.70;99.90
22974;DHT22;11653;50.848;4.584;2023-10-08T06:10:25;14.80;99.90
22974;DHT22;11653;50.848;4.584;2023-10-08T06:13:03;14.80;99.90
22974;DHT22;11653;50.848;4.584;2023-10-08T06:15:46;14.80;99.90
22974;DHT22;11653;50.848;4.584;2023-10-08T06:18:18;14.90;99.90
22974;DHT22;11653;50.848;4.584;2023-10-08T06:20:45;14.90;99.90
22974;DHT22;11653;50.848;4.584;2023-10-08T06:23:12;15.00;99.90
22974;DHT22;11653;50.848;4.584;2023-10-08T06:25:41;15.00;99.90
22974;DHT22;11653;50.848;4.584;2023-10-08T06:28:14;15.10;99.90
22974;DHT22;11653;50.848;4.584;2023-10-08T06:30:54;15.20;99.90
22974;DHT22;11653;50.848;4.584;2023-10-08T06:33:21;15.30;99.90
22974;DHT22;11653;50.848;4.584;2023-10-08T06:35:48;15.40;99.90
22974;DHT22;11653;50.848;4.584;2023-10-08T06:38:33;15.50;99.90
22974;DHT22;11653;50.848;4.584;2023-10-08T06:40:59;15.70;99.90
22974;DHT22;11653;50.848;4.584;2023-10-08T06:43:28;15.80;99.90
22974;DHT22;11653;50.848;4.584;2023-10-08T06:45:54;16.00;99.90
22974;DHT22;11653;50.848;4.584;2023-10-08T06:48:24;16.20;99.90
22974;DHT22;11653;50.848;4.584;2023-10-08T06:50:53;16.50;99.90
22974;DHT22;11653;50.848;4.584;2023-10-08T06:53:33;16.70;99.90
22974;DHT22;11653;50.848;4.584;2023-10-08T06:56:00;17.00;99.90
22974;DHT22;11653;50.848;4.584;2023-10-08T06:58:30;17.10;99.90
22974;DHT22;11653;50.848;4.584;2023-10-08T07:01:00;17.40;99.90
22974;DHT22;11653;50.848;4.584;2023-10-08T07:03:31;17.70;99.90
22974;DHT22;11653;50.848;4.584;2023-10-08T07:05:59;17.90;99.90
22974;DHT22;11653;50.848;4.584;2023-10-08T07:08:32;18.10;99.90
22974;DHT22;11653;50.848;4.584;2023-10-08T07:10:59;18.30;99.90
22974;DHT22;11653;50.848;4.584;2023-10-08T07:13:27;18.60;99.90
22974;DHT22;11653;50.848;4.584;2023-10-08T07:15:55;19.00;99.90
22974;DHT22;11653;50.848;4.584;2023-10-08T07:18:21;19.60;99.90
22974;DHT22;11653;50.848;4.584;2023-10-08T07:20:51;20.10;99.90
22974;DHT22;11653;50.848;4.584;2023-10-08T07:23:24;20.50;99.90
22974;DHT22;11653;50.848;4.584;2023-10-08T07:26:01;20.90;99.90
22974;DHT22;11653;50.848;4.584;2023-10-08T07:28:43;21.60;99.90
22974;DHT22;11653;50.848;4.584;2023-10-08T07:31:23;22.20;99.90
22974;DHT22;11653;50.848;4.584;2023-10-08T07:33:51;22.80;99.90
22974;DHT22;11653;50.848;4.584;2023-10-08T07:36:26;23.20;99.90
22974;DHT22;11653;50.848;4.584;2023-10-08T07:38:55;23.40;99.90
22974;DHT22;11653;50.848;4.584;2023-10-08T07:41:21;23.30;99.90
22974;DHT22;11653;50.848;4.584;2023-10-08T07:43:47;23.10;99.90
22974;DHT22;11653;50.848;4.584;2023-10-08T07:46:21;23.10;99.90
22974;DHT22;11653;50.848;4.584;2023-10-08T07:48:47;23.30;99.90
22974;DHT22;11653;50.848;4.584;2023-10-08T07:51:16;23.80;99.90
22974;DHT22;11653;50.848;4.584;2023-10-08T07:53:52;24.20;99.90
22974;DHT22;11653;50.848;4.584;2023-10-08T07:56:24;24.80;99.90
22974;DHT22;11653;50.848;4.584;2023-10-08T07:58:54;24.90;99.90
22974;DHT22;11653;50.848;4.584;2023-10-08T08:01:23;25.00;99.90
22974;DHT22;11653;50.848;4.584;2023-10-08T08:03:51;25.50;99.90
22974;DHT22;11653;50.848;4.584;2023-10-08T08:06:17;25.70;99.90
22974;DHT22;11653;50.848;4.584;2023-10-08T08:08:43;25.90;99.90
22974;DHT22;11653;50.848;4.584;2023-10-08T08:11:10;26.30;99.80
22974;DHT22;11653;50.848;4.584;2023-10-08T08:13:43;26.50;98.90
22974;DHT22;11653;50.848;4.584;2023-10-08T08:16:13;26.50;98.90
22974;DHT22;11653;50.848;4.584;2023-10-08T08:18:53;26.30;98.80
22974;DHT22;11653;50.848;4.584;2023-10-08T08:21:22;26.30;99.60
22974;DHT22;11653;50.848;4.584;2023-10-08T08:23:49;26.40;99.50
22974;DHT22;11653;50.848;4.584;2023-10-08T08:26:24;26.50;99.10
22974;DHT22;11653;50.848;4.584;2023-10-08T08:29:05;26.80;99.00
22974;DHT22;11653;50.848;4.584;2023-10-08T08:31:35;27.30;98.40
22974;DHT22;11653;50.848;4.584;2023-10-08T08:34:02;27.80;97.50
22974;DHT22;11653;50.848;4.584;2023-10-08T08:36:30;28.70;96.70
22974;DHT22;11653;50.848;4.584;2023-10-08T08:38:57;29.10;94.80
22974;DHT22;11653;50.848;4.584;2023-10-08T08:41:23;29.60;93.30
22974;DHT22;11653;50.848;4.584;2023-10-08T08:43:51;30.10;92.20
22974;DHT22;11653;50.848;4.584;2023-10-08T08:46:36;30.30;91.20
22974;DHT22;11653;50.848;4.584;2023-10-08T08:49:04;30.80;90.40
22974;DHT22;11653;50.848;4.584;2023-10-08T08:51:33;31.10;89.30
22974;DHT22;11653;50.848;4.584;2023-10-08T08:54:01;31.20;88.00
22974;DHT22;11653;50.848;4.584;2023-10-08T08:56:33;31.40;85.90
22974;DHT22;11653;50.848;4.584;2023-10-08T08:59:00;31.30;87.30
22974;DHT22;11653;50.848;4.584;2023-10-08T09:01:27;31.00;87.10
22974;DHT22;11653;50.848;4.584;2023-10-08T09:04:02;30.80;86.00
22974;DHT22;11653;50.848;4.584;2023-10-08T09:06:32;30.80;86.90
22974;DHT22;11653;50.848;4.584;2023-10-08T09:09:02;30.80;87.20
22974;DHT22;11653;50.848;4.584;2023-10-08T09:11:50;30.60;88.90
22974;DHT22;11653;50.848;4.584;2023-10-08T09:14:22;30.40;89.40
22974;DHT22;11653;50.848;4.584;2023-10-08T09:16:48;30.00;89.50
22974;DHT22;11653;50.848;4.584;2023-10-08T09:19:15;29.60;90.30
22974;DHT22;11653;50.848;4.584;2023-10-08T09:24:25;29.00;91.10
22974;DHT22;11653;50.848;4.584;2023-10-08T09:26:52;28.90;91.70
22974;DHT22;11653;50.848;4.584;2023-10-08T09:29:21;28.80;91.70
22974;DHT22;11653;50.848;4.584;2023-10-08T09:31:56;28.80;92.10
22974;DHT22;11653;50.848;4.584;2023-10-08T09:34:27;28.90;92.50
22974;DHT22;11653;50.848;4.584;2023-10-08T09:36:55;28.90;92.50
22974;DHT22;11653;50.848;4.584;2023-10-08T09:39:22;28.70;92.40
22974;DHT22;11653;50.848;4.584;2023-10-08T09:41:56;28.60;92.90
22974;DHT22;11653;50.848;4.584;2023-10-08T09:44:23;28.70;93.40
22974;DHT22;11653;50.848;4.584;2023-10-08T09:49:34;29.30;93.30
22974;DHT22;11653;50.848;4.584;2023-10-08T09:52:03;30.10;91.50
22974;DHT22;11653;50.848;4.584;2023-10-08T09:54:36;30.60;90.60
22974;DHT22;11653;50.848;4.584;2023-10-08T09:57:05;30.60;90.30
22974;DHT22;11653;50.848;4.584;2023-10-08T09:59:35;30.80;89.40
22974;DHT22;11653;50.848;4.584;2023-10-08T10:02:04;31.00;89.40
22974;DHT22;11653;50.848;4.584;2023-10-08T10:04:31;31.70;88.40
22974;DHT22;11653;50.848;4.584;2023-10-08T10:07:09;32.60;84.70
22974;DHT22;11653;50.848;4.584;2023-10-08T10:09:38;33.00;83.50
22974;DHT22;11653;50.848;4.584;2023-10-08T10:12:05;33.20;82.50
22974;DHT22;11653;50.848;4.584;2023-10-08T10:14:42;33.40;80.70
22974;DHT22;11653;50.848;4.584;2023-10-08T10:17:10;33.50;79.80
22974;DHT22;11653;50.848;4.584;2023-10-08T10:19:37;33.40;79.30
22974;DHT22;11653;50.848;4.584;2023-10-08T10:22:04;33.30;80.40
22974;DHT22;11653;50.848;4.584;2023-10-08T10:24:36;33.50;79.80
22974;DHT22;11653;50.848;4.584;2023-10-08T10:27:14;34.00;79.10
22974;DHT22;11653;50.848;4.584;2023-10-08T10:29:41;34.40;77.20
22974;DHT22;11653;50.848;4.584;2023-10-08T10:32:11;34.60;77.30
22974;DHT22;11653;50.848;4.584;2023-10-08T10:34:39;35.00;76.40
22974;DHT22;11653;50.848;4.584;2023-10-08T10:37:05;35.20;73.20
22974;DHT22;11653;50.848;4.584;2023-10-08T10:39:55;35.60;73.10
22974;DHT22;11653;50.848;4.584;2023-10-08T10:42:24;35.70;73.30
22974;DHT22;11653;50.848;4.584;2023-10-08T10:44:52;35.90;72.00
22974;DHT22;11653;50.848;4.584;2023-10-08T10:47:19;35.90;70.80
22974;DHT22;11653;50.848;4.584;2023-10-08T10:49:50;35.50;70.40
22974;DHT22;11653;50.848;4.584;2023-10-08T10:52:26;35.30;70.50
22974;DHT22;11653;50.848;4.584;2023-10-08T10:55:06;34.80;71.70
22974;DHT22;11653;50.848;4.584;2023-10-08T10:57:54;34.50;71.70
22974;DHT22;11653;50.848;4.584;2023-10-08T11:00:37;34.00;73.60
22974;DHT22;11653;50.848;4.584;2023-10-08T11:03:03;34.10;72.80
22974;DHT22;11653;50.848;4.584;2023-10-08T11:05:37;34.50;73.00
22974;DHT22;11653;50.848;4.584;2023-10-08T11:08:06;35.00;71.60
22974;DHT22;11653;50.848;4.584;2023-10-08T11:10:37;35.60;69.70
22974;DHT22;11653;50.848;4.584;2023-10-08T11:13:05;36.10;68.40
22974;DHT22;11653;50.848;4.584;2023-10-08T11:15:40;36.00;67.50
22974;DHT22;11653;50.848;4.584;2023-10-08T11:18:16;36.00;67.30
22974;DHT22;11653;50.848;4.584;2023-10-08T11:20:42;36.60;66.90
22974;DHT22;11653;50.848;4.584;2023-10-08T11:23:10;36.70;64.80
22974;DHT22;11653;50.848;4.584;2023-10-08T11:25:56;36.90;64.30
22974;DHT22;11653;50.848;4.584;2023-10-08T11:28:36;37.10;65.00
22974;DHT22;11653;50.848;4.584;2023-10-08T11:31:10;37.50;62.50
22974;DHT22;11653;50.848;4.584;2023-10-08T11:33:38;37.30;62.10
22974;DHT22;11653;50.848;4.584;2023-10-08T11:36:08;37.40;63.60
22974;DHT22;11653;50.848;4.584;2023-10-08T11:38:57;37.40;62.60
22974;DHT22;11653;50.848;4.584;2023-10-08T11:41:32;37.10;63.30
22974;DHT22;11653;50.848;4.584;2023-10-08T11:44:15;37.20;61.00
22974;DHT22;11653;50.848;4.584;2023-10-08T11:46:45;36.50;62.20
22974;DHT22;11653;50.848;4.584;2023-10-08T11:49:11;36.30;63.70
22974;DHT22;11653;50.848;4.584;2023-10-08T11:51:51;36.20;63.80
22974;DHT22;11653;50.848;4.584;2023-10-08T11:54:21;36.10;64.80
22974;DHT22;11653;50.848;4.584;2023-10-08T11:56:49;36.30;63.80
22974;DHT22;11653;50.848;4.584;2023-10-08T11:59:14;36.20;63.30
22974;DHT22;11653;50.848;4.584;2023-10-08T12:01:43;35.90;63.70
22974;DHT22;11653;50.848;4.584;2023-10-08T12:04:10;35.40;65.90
22974;DHT22;11653;50.848;4.584;2023-10-08T12:06:41;35.30;66.10
22974;DHT22;11653;50.848;4.584;2023-10-08T12:09:13;35.20;65.60
22974;DHT22;11653;50.848;4.584;2023-10-08T12:11:39;35.20;66.20
22974;DHT22;11653;50.848;4.584;2023-10-08T12:14:05;35.00;65.50
22974;DHT22;11653;50.848;4.584;2023-10-08T12:16:31;35.00;66.50
22974;DHT22;11653;50.848;4.584;2023-10-08T12:19:01;34.90;66.50
22974;DHT22;11653;50.848;4.584;2023-10-08T12:21:29;34.30;65.70
22974;DHT22;11653;50.848;4.584;2023-10-08T12:23:58;33.70;66.30
22974;DHT22;11653;50.848;4.584;2023-10-08T12:26:24;33.20;70.20
22974;DHT22;11653;50.848;4.584;2023-10-08T12:28:50;32.60;70.30
22974;DHT22;11653;50.848;4.584;2023-10-08T12:31:17;32.20;71.50
22974;DHT22;11653;50.848;4.584;2023-10-08T12:33:46;31.90;73.30
22974;DHT22;11653;50.848;4.584;2023-10-08T12:36:12;31.80;73.70
22974;DHT22;11653;50.848;4.584;2023-10-08T12:38:42;31.70;70.90
22974;DHT22;11653;50.848;4.584;2023-10-08T12:41:09;31.40;72.40
22974;DHT22;11653;50.848;4.584;2023-10-08T12:43:43;30.90;74.20
22974;DHT22;11653;50.848;4.584;2023-10-08T12:46:11;30.60;75.10
22974;DHT22;11653;50.848;4.584;2023-10-08T12:48:44;30.50;74.70
22974;DHT22;11653;50.848;4.584;2023-10-08T12:51:11;30.30;75.30
22974;DHT22;11653;50.848;4.584;2023-10-08T12:53:37;30.20;76.60
22974;DHT22;11653;50.848;4.584;2023-10-08T12:56:08;30.10;76.10
22974;DHT22;11653;50.848;4.584;2023-10-08T12:58:41;30.20;76.20
22974;DHT22;11653;50.848;4.584;2023-10-08T13:01:10;30.20;74.50
22974;DHT22;11653;50.848;4.584;2023-10-08T13:03:39;30.10;74.90
22974;DHT22;11653;50.848;4.584;2023-10-08T13:06:09;29.70;76.90
22974;DHT22;11653;50.848;4.584;2023-10-08T13:08:50;29.10;77.50
22974;DHT22;11653;50.848;4.584;2023-10-08T13:11:18;28.70;81.20
22974;DHT22;11653;50.848;4.584;2023-10-08T13:13:51;28.30;83.40
22974;DHT22;11653;50.848;4.584;2023-10-08T13:16:18;27.90;83.00
22974;DHT22;11653;50.848;4.584;2023-10-08T13:18:49;27.70;85.50
22974;DHT22;11653;50.848;4.584;2023-10-08T13:21:15;27.60;86.70
22974;DHT22;11653;50.848;4.584;2023-10-08T13:23:41;27.50;87.00
22974;DHT22;11653;50.848;4.584;2023-10-08T13:26:07;27.50;86.60
22974;DHT22;11653;50.848;4.584;2023-10-08T13:28:34;27.30;87.90
22974;DHT22;11653;50.848;4.584;2023-10-08T13:31:02;27.30;90.70
22974;DHT22;11653;50.848;4.584;2023-10-08T13:33:38;27.40;90.10
22974;DHT22;11653;50.848;4.584;2023-10-08T13:36:06;27.50;88.00
22974;DHT22;11653;50.848;4.584;2023-10-08T13:38:36;27.50;89.80
22974;DHT22;11653;50.848;4.584;2023-10-08T13:41:03;27.60;90.40
22974;DHT22;11653;50.848;4.584;2023-10-08T13:43:35;27.50;89.60
22974;DHT22;11653;50.848;4.584;2023-10-08T13:48:32;27.30;87.90
22974;DHT22;11653;50.848;4.584;2023-10-08T13:51:02;27.20;89.60
22974;DHT22;11653;50.848;4.584;2023-10-08T13:53:30;27.10;91.50
22974;DHT22;11653;50.848;4.584;2023-10-08T13:55:57;27.20;91.20
22974;DHT22;11653;50.848;4.584;2023-10-08T13:58:26;27.20;88.70
22974;DHT22;11653;50.848;4.584;2023-10-08T14:00:54;27.10;90.30
22974;DHT22;11653;50.848;4.584;2023-10-08T14:03:19;27.00;91.10
22974;DHT22;11653;50.848;4.584;2023-10-08T14:05:48;26.90;91.20
22974;DHT22;11653;50.848;4.584;2023-10-08T14:08:19;26.90;90.40
22974;DHT22;11653;50.848;4.584;2023-10-08T14:10:45;26.80;90.40
22974;DHT22;11653;50.848;4.584;2023-10-08T14:13:14;26.80;90.80
22974;DHT22;11653;50.848;4.584;2023-10-08T14:15:47;26.80;91.70
22974;DHT22;11653;50.848;4.584;2023-10-08T14:18:22;26.70;91.90
22974;DHT22;11653;50.848;4.584;2023-10-08T14:20:52;26.60;91.30
22974;DHT22;11653;50.848;4.584;2023-10-08T14:23:23;26.60;90.80
22974;DHT22;11653;50.848;4.584;2023-10-08T14:25:51;26.40;91.40
22974;DHT22;11653;50.848;4.584;2023-10-08T14:28:18;26.30;90.90
22974;DHT22;11653;50.848;4.584;2023-10-08T14:31:08;26.20;92.50
22974;DHT22;11653;50.848;4.584;2023-10-08T14:33:33;26.10;91.50
22974;DHT22;11653;50.848;4.584;2023-10-08T14:36:08;26.00;90.70
22974;DHT22;11653;50.848;4.584;2023-10-08T14:38:53;25.90;90.30
22974;DHT22;11653;50.848;4.584;2023-10-08T14:41:37;25.80;92.30
22974;DHT22;11653;50.848;4.584;2023-10-08T14:44:21;25.70;91.40
22974;DHT22;11653;50.848;4.584;2023-10-08T14:46:46;25.60;92.10
22974;DHT22;11653;50.848;4.584;2023-10-08T14:49:12;25.60;93.20
22974;DHT22;11653;50.848;4.584;2023-10-08T14:51:38;25.60;92.50
22974;DHT22;11653;50.848;4.584;2023-10-08T14:54:06;25.60;94.10
22974;DHT22;11653;50.848;4.584;2023-10-08T14:56:34;25.70;93.40
22974;DHT22;11653;50.848;4.584;2023-10-08T14:59:01;25.70;93.40
22974;DHT22;11653;50.848;4.584;2023-10-08T15:01:27;25.70;95.50
22974;DHT22;11653;50.848;4.584;2023-10-08T15:03:53;25.70;95.30
22974;DHT22;11653;50.848;4.584;2023-10-08T15:06:19;25.70;95.20
22974;DHT22;11653;50.848;4.584;2023-10-08T15:08:46;25.80;95.10
22974;DHT22;11653;50.848;4.584;2023-10-08T15:11:12;25.90;93.40
22974;DHT22;11653;50.848;4.584;2023-10-08T15:13:37;25.90;93.30
22974;DHT22;11653;50.848;4.584;2023-10-08T15:16:09;25.80;95.50
22974;DHT22;11653;50.848;4.584;2023-10-08T15:18:35;25.70;96.30
22974;DHT22;11653;50.848;4.584;2023-10-08T15:21:08;25.70;95.60
22974;DHT22;11653;50.848;4.584;2023-10-08T15:23:34;25.70;96.30
22974;DHT22;11653;50.848;4.584;2023-10-08T15:26:01;25.60;97.30
22974;DHT22;11653;50.848;4.584;2023-10-08T15:28:27;25.60;96.40
22974;DHT22;11653;50.848;4.584;2023-10-08T15:30:52;25.50;96.80
22974;DHT22;11653;50.848;4.584;2023-10-08T15:33:18;25.40;98.40
22974;DHT22;11653;50.848;4.584;2023-10-08T15:35:44;25.30;96.70
22974;DHT22;11653;50.848;4.584;2023-10-08T15:38:10;25.10;97.60
22974;DHT22;11653;50.848;4.584;2023-10-08T15:40:38;24.90;97.50
22974;DHT22;11653;50.848;4.584;2023-10-08T15:43:03;24.90;98.60
22974;DHT22;11653;50.848;4.584;2023-10-08T15:45:29;24.80;99.70
22974;DHT22;11653;50.848;4.584;2023-10-08T15:47:55;24.80;99.70
22974;DHT22;11653;50.848;4.584;2023-10-08T15:50:21;24.80;99.40
22974;DHT22;11653;50.848;4.584;2023-10-08T15:52:50;24.80;99.20
22974;DHT22;11653;50.848;4.584;2023-10-08T15:55:16;24.70;99.90
22974;DHT22;11653;50.848;4.584;2023-10-08T15:57:43;24.60;99.90
22974;DHT22;11653;50.848;4.584;2023-10-08T16:00:09;24.60;99.90
22974;DHT22;11653;50.848;4.584;2023-10-08T16:02:35;24.70;99.90